sensor_id;sensor_type;location;lat;lon;timestamp;temperature;humidity
75471;HTU21D;64051;46.320;48.028;2022-11-11T00:24:28;2.81;82.57
75471;HTU21D;64051;46.320;48.028;2022-11-11T00:27:32;2.80;82.49
75471;HTU21D;64051;46.320;48.028;2022-11-11T00:30:16;2.78;83.04
75471;HTU21D;64051;46.320;48.028;2022-11-11T00:33:01;2.78;82.58
75471;HTU21D;64051;46.320;48.028;2022-11-11T00:35:45;2.79;82.86
75471;HTU21D;64051;46.320;48.028;2022-11-11T00:38:42;2.81;82.57
75471;HTU21D;64051;46.320;48.028;2022-11-11T00:41:29;2.84;82.75
75471;HTU21D;64051;46.320;48.028;2022-11-11T00:44:14;2.85;82.42
75471;HTU21D;64051;46.320;48.028;2022-11-11T00:46:58;2.87;82.53
75471;HTU21D;64051;46.320;48.028;2022-11-11T00:50:26;2.89;82.39
75471;HTU21D;64051;46.320;48.028;2022-11-11T00:53:30;2.88;82.00
75471;HTU21D;64051;46.320;48.028;2022-11-11T01:04:51;2.83;82.88
75471;HTU21D;64051;46.320;48.028;2022-11-11T01:07:35;2.81;83.34
75471;HTU21D;64051;46.320;48.028;2022-11-11T01:10:20;2.82;82.64
75471;HTU21D;64051;46.320;48.028;2022-11-11T01:13:29;2.81;82.78
75471;HTU21D;64051;46.320;48.028;2022-11-11T01:16:23;2.79;83.12
75471;HTU21D;64051;46.320;48.028;2022-11-11T01:19:07;2.75;82.65
75471;HTU21D;64051;46.320;48.028;2022-11-11T01:21:51;2.71;82.33
75471;HTU21D;64051;46.320;48.028;2022-11-11T01:24:36;2.69;82.52
75471;HTU21D;64051;46.320;48.028;2022-11-11T01:27:21;2.68;82.33
75471;HTU21D;64051;46.320;48.028;2022-11-11T01:30:06;2.67;82.98
75471;HTU21D;64051;46.320;48.028;2022-11-11T01:32:50;2.66;82.63
75471;HTU21D;64051;46.320;48.028;2022-11-11T01:35:39;2.65;82.42
75471;HTU21D;64051;46.320;48.028;2022-11-11T01:38:24;2.64;82.39
75471;HTU21D;64051;46.320;48.028;2022-11-11T01:41:14;2.65;82.44
75471;HTU21D;64051;46.320;48.028;2022-11-11T01:47:29;2.65;82.58
75471;HTU21D;64051;46.320;48.028;2022-11-11T01:50:34;2.62;82.69
75471;HTU21D;64051;46.320;48.028;2022-11-11T01:53:18;2.60;82.98
75471;HTU21D;64051;46.320;48.028;2022-11-11T01:56:03;2.59;83.08
75471;HTU21D;64051;46.320;48.028;2022-11-11T01:58:50;2.58;82.52
75471;HTU21D;64051;46.320;48.028;2022-11-11T02:01:36;2.57;82.88
75471;HTU21D;64051;46.320;48.028;2022-11-11T02:04:20;2.56;83.10
75471;HTU21D;64051;46.320;48.028;2022-11-11T02:07:25;2.55;82.97
75471;HTU21D;64051;46.320;48.028;2022-11-11T02:10:09;2.54;83.29
75471;HTU21D;64051;46.320;48.028;2022-11-11T02:12:54;2.52;83.21
75471;HTU21D;64051;46.320;48.028;2022-11-11T02:15:57;2.49;82.84
75471;HTU21D;64051;46.320;48.028;2022-11-11T02:18:42;2.44;82.37
75471;HTU21D;64051;46.320;48.028;2022-11-11T02:21:34;2.39;82.39
75471;HTU21D;64051;46.320;48.028;2022-11-11T02:24:20;2.32;83.04
75471;HTU21D;64051;46.320;48.028;2022-11-11T02:27:09;2.30;82.78
75471;HTU21D;64051;46.320;48.028;2022-11-11T02:29:55;2.27;83.04
75471;HTU21D;64051;46.320;48.028;2022-11-11T02:32:46;2.26;82.67
75471;HTU21D;64051;46.320;48.028;2022-11-11T02:35:33;2.26;82.54
75471;HTU21D;64051;46.320;48.028;2022-11-11T02:38:18;2.27;82.53
75471;HTU21D;64051;46.320;48.028;2022-11-11T02:41:03;2.28;82.62
75471;HTU21D;64051;46.320;48.028;2022-11-11T02:44:06;2.28;82.58
75471;HTU21D;64051;46.320;48.028;2022-11-11T02:46:51;2.21;82.46
75471;HTU21D;64051;46.320;48.028;2022-11-11T02:49:38;2.17;82.75
75471;HTU21D;64051;46.320;48.028;2022-11-11T02:52:23;2.14;82.78
75471;HTU21D;64051;46.320;48.028;2022-11-11T02:55:08;2.13;82.51
75471;HTU21D;64051;46.320;48.028;2022-11-11T02:57:53;2.07;82.60
75471;HTU21D;64051;46.320;48.028;2022-11-11T03:00:37;2.01;82.32
75471;HTU21D;64051;46.320;48.028;2022-11-11T03:03:21;1.94;82.58
75471;HTU21D;64051;46.320;48.028;2022-11-11T03:06:06;1.91;82.83
75471;HTU21D;64051;46.320;48.028;2022-11-11T03:08:51;1.90;83.27
75471;HTU21D;64051;46.320;48.028;2022-11-11T03:11:35;1.86;82.98
75471;HTU21D;64051;46.320;48.028;2022-11-11T03:14:21;1.82;83.02
75471;HTU21D;64051;46.320;48.028;2022-11-11T03:17:05;1.79;83.14
75471;HTU21D;64051;46.320;48.028;2022-11-11T03:23:16;1.67;83.14
75471;HTU21D;64051;46.320;48.028;2022-11-11T03:26:01;1.63;82.97
75471;HTU21D;64051;46.320;48.028;2022-11-11T03:28:45;1.58;83.17
75471;HTU21D;64051;46.320;48.028;2022-11-11T03:31:30;1.56;83.07
75471;HTU21D;64051;46.320;48.028;2022-11-11T03:34:15;1.57;83.35
75471;HTU21D;64051;46.320;48.028;2022-11-11T03:37:05;1.60;83.79
75471;HTU21D;64051;46.320;48.028;2022-11-11T03:40:09;1.62;83.37
75471;HTU21D;64051;46.320;48.028;2022-11-11T03:42:54;1.62;83.34
75471;HTU21D;64051;46.320;48.028;2022-11-11T03:45:39;1.64;83.36
75471;HTU21D;64051;46.320;48.028;2022-11-11T03:48:25;1.65;83.20
75471;HTU21D;64051;46.320;48.028;2022-11-11T03:51:10;1.66;83.37
75471;HTU21D;64051;46.320;48.028;2022-11-11T03:53:54;1.62;82.55
75471;HTU21D;64051;46.320;48.028;2022-11-11T03:56:39;1.54;82.68
75471;HTU21D;64051;46.320;48.028;2022-11-11T03:59:23;1.52;82.96
75471;HTU21D;64051;46.320;48.028;2022-11-11T04:02:11;1.49;83.09
75471;HTU21D;64051;46.320;48.028;2022-11-11T04:05:15;1.48;83.41
75471;HTU21D;64051;46.320;48.028;2022-11-11T04:08:19;1.46;82.83
75471;HTU21D;64051;46.320;48.028;2022-11-11T04:11:34;1.46;83.07
75471;HTU21D;64051;46.320;48.028;2022-11-11T04:14:19;1.46;82.87
75471;HTU21D;64051;46.320;48.028;2022-11-11T04:17:22;1.49;83.44
75471;HTU21D;64051;46.320;48.028;2022-11-11T04:20:07;1.52;83.36
75471;HTU21D;64051;46.320;48.028;2022-11-11T04:23:11;1.54;83.79
75471;HTU21D;64051;46.320;48.028;2022-11-11T04:25:59;1.60;83.51
75471;HTU21D;64051;46.320;48.028;2022-11-11T04:28:44;1.62;83.52
75471;HTU21D;64051;46.320;48.028;2022-11-11T04:31:59;1.65;83.84
75471;HTU21D;64051;46.320;48.028;2022-11-11T04:35:07;1.68;83.18
75471;HTU21D;64051;46.320;48.028;2022-11-11T04:37:51;1.67;83.32
75471;HTU21D;64051;46.320;48.028;2022-11-11T04:40:56;1.65;83.17
75471;HTU21D;64051;46.320;48.028;2022-11-11T04:43:51;1.64;83.00
75471;HTU21D;64051;46.320;48.028;2022-11-11T04:46:54;1.62;83.09
75471;HTU21D;64051;46.320;48.028;2022-11-11T04:49:39;1.62;83.09
75471;HTU21D;64051;46.320;48.028;2022-11-11T04:52:23;1.64;83.25
75471;HTU21D;64051;46.320;48.028;2022-11-11T04:55:11;1.65;82.99
75471;HTU21D;64051;46.320;48.028;2022-11-11T04:58:16;1.66;83.02
75471;HTU21D;64051;46.320;48.028;2022-11-11T05:01:01;1.67;83.13
75471;HTU21D;64051;46.320;48.028;2022-11-11T05:03:46;1.64;82.75
75471;HTU21D;64051;46.320;48.028;2022-11-11T05:06:30;1.62;82.87
75471;HTU21D;64051;46.320;48.028;2022-11-11T05:09:33;1.56;82.71
75471;HTU21D;64051;46.320;48.028;2022-11-11T05:12:18;1.54;82.78
75471;HTU21D;64051;46.320;48.028;2022-11-11T05:15:02;1.54;83.06
75471;HTU21D;64051;46.320;48.028;2022-11-11T05:18:08;1.57;83.11
75471;HTU21D;64051;46.320;48.028;2022-11-11T05:21:29;1.62;83.13
75471;HTU21D;64051;46.320;48.028;2022-11-11T05:24:14;1.67;84.00
75471;HTU21D;64051;46.320;48.028;2022-11-11T05:27:20;1.77;84.29
75471;HTU21D;64051;46.320;48.028;2022-11-11T05:30:07;1.82;83.74
75471;HTU21D;64051;46.320;48.028;2022-11-11T05:32:54;1.91;84.24
75471;HTU21D;64051;46.320;48.028;2022-11-11T05:35:42;2.01;84.01
75471;HTU21D;64051;46.320;48.028;2022-11-11T05:38:27;2.10;83.40
75471;HTU21D;64051;46.320;48.028;2022-11-11T05:41:13;2.21;84.00
75471;HTU21D;64051;46.320;48.028;2022-11-11T05:43:58;2.27;83.68
75471;HTU21D;64051;46.320;48.028;2022-11-11T05:46:42;2.37;83.55
75471;HTU21D;64051;46.320;48.028;2022-11-11T05:49:28;2.46;83.67
75471;HTU21D;64051;46.320;48.028;2022-11-11T05:52:16;2.56;83.38
75471;HTU21D;64051;46.320;48.028;2022-11-11T05:55:01;2.62;83.45
75471;HTU21D;64051;46.320;48.028;2022-11-11T05:57:45;2.66;83.29
75471;HTU21D;64051;46.320;48.028;2022-11-11T06:00:33;2.68;83.28
75471;HTU21D;64051;46.320;48.028;2022-11-11T06:03:17;2.73;83.21
75471;HTU21D;64051;46.320;48.028;2022-11-11T06:06:02;2.82;83.35
75471;HTU21D;64051;46.320;48.028;2022-11-11T06:08:46;2.94;83.52
75471;HTU21D;64051;46.320;48.028;2022-11-11T06:11:34;3.03;83.57
75471;HTU21D;64051;46.320;48.028;2022-11-11T06:14:18;3.09;83.81
75471;HTU21D;64051;46.320;48.028;2022-11-11T06:17:03;3.18;83.33
75471;HTU21D;64051;46.320;48.028;2022-11-11T06:19:47;3.19;83.40
75471;HTU21D;64051;46.320;48.028;2022-11-11T06:22:33;3.23;83.35
75471;HTU21D;64051;46.320;48.028;2022-11-11T06:25:36;3.25;83.04
75471;HTU21D;64051;46.320;48.028;2022-11-11T06:28:53;3.21;82.69
75471;HTU21D;64051;46.320;48.028;2022-11-11T06:31:38;3.18;83.17
75471;HTU21D;64051;46.320;48.028;2022-11-11T06:34:22;3.21;83.13
75471;HTU21D;64051;46.320;48.028;2022-11-11T06:37:07;3.31;83.79
75471;HTU21D;64051;46.320;48.028;2022-11-11T06:39:51;3.43;83.35
75471;HTU21D;64051;46.320;48.028;2022-11-11T06:42:36;3.53;83.52
75471;HTU21D;64051;46.320;48.028;2022-11-11T06:45:22;3.63;83.53
75471;HTU21D;64051;46.320;48.028;2022-11-11T06:48:07;3.71;83.34
75471;HTU21D;64051;46.320;48.028;2022-11-11T06:50:52;3.80;83.41
75471;HTU21D;64051;46.320;48.028;2022-11-11T06:53:37;3.87;83.10
75471;HTU21D;64051;46.320;48.028;2022-11-11T06:56:24;3.89;82.95
75471;HTU21D;64051;46.320;48.028;2022-11-11T06:59:08;3.93;82.87
75471;HTU21D;64051;46.320;48.028;2022-11-11T07:01:53;3.98;83.14
75471;HTU21D;64051;46.320;48.028;2022-11-11T07:04:38;4.06;82.99
75471;HTU21D;64051;46.320;48.028;2022-11-11T07:07:22;4.16;83.12
75471;HTU21D;64051;46.320;48.028;2022-11-11T07:10:07;4.24;83.13
75471;HTU21D;64051;46.320;48.028;2022-11-11T07:12:53;4.34;83.12
75471;HTU21D;64051;46.320;48.028;2022-11-11T07:15:41;4.46;83.20
75471;HTU21D;64051;46.320;48.028;2022-11-11T07:18:27;4.53;83.18
75471;HTU21D;64051;46.320;48.028;2022-11-11T07:21:11;4.61;83.16
75471;HTU21D;64051;46.320;48.028;2022-11-11T07:23:59;4.68;83.04
75471;HTU21D;64051;46.320;48.028;2022-11-11T07:26:43;4.74;82.96
75471;HTU21D;64051;46.320;48.028;2022-11-11T07:29:28;4.77;82.83
75471;HTU21D;64051;46.320;48.028;2022-11-11T07:32:13;4.76;82.49
75471;HTU21D;64051;46.320;48.028;2022-11-11T07:34:57;4.74;82.46
75471;HTU21D;64051;46.320;48.028;2022-11-11T07:37:42;4.74;82.72
75471;HTU21D;64051;46.320;48.028;2022-11-11T07:40:27;4.78;82.78
75471;HTU21D;64051;46.320;48.028;2022-11-11T07:43:13;4.87;82.67
75471;HTU21D;64051;46.320;48.028;2022-11-11T07:46:00;4.88;82.85
75471;HTU21D;64051;46.320;48.028;2022-11-11T07:48:48;4.90;82.55
75471;HTU21D;64051;46.320;48.028;2022-11-11T07:51:32;4.97;82.87
75471;HTU21D;64051;46.320;48.028;2022-11-11T07:54:17;5.02;82.80
75471;HTU21D;64051;46.320;48.028;2022-11-11T07:57:01;5.06;83.00
75471;HTU21D;64051;46.320;48.028;2022-11-11T07:59:46;5.16;83.01
75471;HTU21D;64051;46.320;48.028;2022-11-11T08:02:30;5.27;83.23
75471;HTU21D;64051;46.320;48.028;2022-11-11T08:05:18;5.40;83.10
75471;HTU21D;64051;46.320;48.028;2022-11-11T08:08:07;5.50;82.78
75471;HTU21D;64051;46.320;48.028;2022-11-11T08:10:55;5.55;82.65
75471;HTU21D;64051;46.320;48.028;2022-11-11T08:13:42;5.61;82.43
75471;HTU21D;64051;46.320;48.028;2022-11-11T08:16:27;5.63;82.46
75471;HTU21D;64051;46.320;48.028;2022-11-11T08:19:11;5.69;82.61
75471;HTU21D;64051;46.320;48.028;2022-11-11T08:21:56;5.80;82.77
75471;HTU21D;64051;46.320;48.028;2022-11-11T08:24:40;5.93;82.80
75471;HTU21D;64051;46.320;48.028;2022-11-11T08:27:25;6.07;82.87
75471;HTU21D;64051;46.320;48.028;2022-11-11T08:30:10;6.16;82.58
75471;HTU21D;64051;46.320;48.028;2022-11-11T08:32:59;6.22;82.08
75471;HTU21D;64051;46.320;48.028;2022-11-11T08:35:43;6.16;81.91
75471;HTU21D;64051;46.320;48.028;2022-11-11T08:38:28;6.12;81.95
75471;HTU21D;64051;46.320;48.028;2022-11-11T08:41:12;6.15;82.36
75471;HTU21D;64051;46.320;48.028;2022-11-11T08:43:57;6.23;82.46
75471;HTU21D;64051;46.320;48.028;2022-11-11T08:46:43;6.34;82.38
75471;HTU21D;64051;46.320;48.028;2022-11-11T08:49:27;6.37;82.07
75471;HTU21D;64051;46.320;48.028;2022-11-11T08:52:12;6.36;81.88
75471;HTU21D;64051;46.320;48.028;2022-11-11T08:54:56;6.36;81.91
75471;HTU21D;64051;46.320;48.028;2022-11-11T08:57:43;6.36;81.94
75471;HTU21D;64051;46.320;48.028;2022-11-11T09:00:28;6.37;82.07
75471;HTU21D;64051;46.320;48.028;2022-11-11T09:03:12;6.39;82.10
75471;HTU21D;64051;46.320;48.028;2022-11-11T09:05:57;6.43;82.13
75471;HTU21D;64051;46.320;48.028;2022-11-11T09:08:42;6.48;82.13
75471;HTU21D;64051;46.320;48.028;2022-11-11T09:11:27;6.53;81.91
75471;HTU21D;64051;46.320;48.028;2022-11-11T09:14:11;6.56;81.97
75471;HTU21D;64051;46.320;48.028;2022-11-11T09:16:56;6.63;82.07
75471;HTU21D;64051;46.320;48.028;2022-11-11T09:19:40;6.68;82.01
75471;HTU21D;64051;46.320;48.028;2022-11-11T09:22:25;6.72;82.02
75471;HTU21D;64051;46.320;48.028;2022-11-11T09:25:09;6.79;82.17
75471;HTU21D;64051;46.320;48.028;2022-11-11T09:27:59;6.87;82.02
75471;HTU21D;64051;46.320;48.028;2022-11-11T09:30:44;6.94;81.94
75471;HTU21D;64051;46.320;48.028;2022-11-11T09:33:31;6.98;81.88
75471;HTU21D;64051;46.320;48.028;2022-11-11T09:36:15;6.98;81.55
75471;HTU21D;64051;46.320;48.028;2022-11-11T09:39:00;6.96;81.55
75471;HTU21D;64051;46.320;48.028;2022-11-11T09:41:57;6.97;81.63
75471;HTU21D;64051;46.320;48.028;2022-11-11T09:51:00;6.90;81.61
75471;HTU21D;64051;46.320;48.028;2022-11-11T09:53:52;6.90;81.52
75471;HTU21D;64051;46.320;48.028;2022-11-11T09:56:38;6.89;81.65
75471;HTU21D;64051;46.320;48.028;2022-11-11T09:59:32;6.93;81.72
75471;HTU21D;64051;46.320;48.028;2022-11-11T10:03:07;6.95;81.63
75471;HTU21D;64051;46.320;48.028;2022-11-11T10:05:32;6.99;81.64
75471;HTU21D;64051;46.320;48.028;2022-11-11T10:08:27;7.05;81.74
75471;HTU21D;64051;46.320;48.028;2022-11-11T10:11:28;7.14;81.78
75471;HTU21D;64051;46.320;48.028;2022-11-11T10:14:16;7.20;81.57
75471;HTU21D;64051;46.320;48.028;2022-11-11T10:17:37;7.25;81.49
75471;HTU21D;64051;46.320;48.028;2022-11-11T10:23:16;7.29;81.39
75471;HTU21D;64051;46.320;48.028;2022-11-11T10:29:19;7.18;81.03
75471;HTU21D;64051;46.320;48.028;2022-11-11T10:32:19;7.12;81.13
75471;HTU21D;64051;46.320;48.028;2022-11-11T10:35:17;7.08;81.22
75471;HTU21D;64051;46.320;48.028;2022-11-11T10:41:19;7.13;81.45
75471;HTU21D;64051;46.320;48.028;2022-11-11T10:44:24;7.23;81.52
75471;HTU21D;64051;46.320;48.028;2022-11-11T10:56:04;7.28;81.23
75471;HTU21D;64051;46.320;48.028;2022-11-11T10:59:34;7.28;81.10
75471;HTU21D;64051;46.320;48.028;2022-11-11T11:02:29;7.32;81.29
75471;HTU21D;64051;46.320;48.028;2022-11-11T11:05:36;7.39;81.27
75471;HTU21D;64051;46.320;48.028;2022-11-11T11:12:09;7.41;80.97
75471;HTU21D;64051;46.320;48.028;2022-11-11T11:14:59;7.39;80.78
75471;HTU21D;64051;46.320;48.028;2022-11-11T11:18:08;7.38;80.89
75471;HTU21D;64051;46.320;48.028;2022-11-11T11:21:02;7.41;81.00
75471;HTU21D;64051;46.320;48.028;2022-11-11T11:23:47;7.40;80.79
75471;HTU21D;64051;46.320;48.028;2022-11-11T11:26:45;7.38;80.64
75471;HTU21D;64051;46.320;48.028;2022-11-11T11:32:31;7.32;80.75
75471;HTU21D;64051;46.320;48.028;2022-11-11T11:35:32;7.33;80.91
75471;HTU21D;64051;46.320;48.028;2022-11-11T11:38:17;7.29;80.77
75471;HTU21D;64051;46.320;48.028;2022-11-11T11:41:02;7.27;80.69
75471;HTU21D;64051;46.320;48.028;2022-11-11T11:43:46;7.27;80.81
75471;HTU21D;64051;46.320;48.028;2022-11-11T11:46:40;7.29;80.82
75471;HTU21D;64051;46.320;48.028;2022-11-11T11:55:53;7.42;80.74
75471;HTU21D;64051;46.320;48.028;2022-11-11T11:59:03;7.43;80.71
75471;HTU21D;64051;46.320;48.028;2022-11-11T12:12:04;7.53;80.65
75471;HTU21D;64051;46.320;48.028;2022-11-11T12:15:02;7.53;80.50
75471;HTU21D;64051;46.320;48.028;2022-11-11T12:21:10;7.49;80.40
75471;HTU21D;64051;46.320;48.028;2022-11-11T12:24:23;7.49;80.58
75471;HTU21D;64051;46.320;48.028;2022-11-11T12:30:18;7.48;80.47
75471;HTU21D;64051;46.320;48.028;2022-11-11T12:40:06;7.39;80.34
75471;HTU21D;64051;46.320;48.028;2022-11-11T12:43:01;7.34;80.36
75471;HTU21D;64051;46.320;48.028;2022-11-11T12:54:44;7.18;80.39
75471;HTU21D;64051;46.320;48.028;2022-11-11T13:00:23;7.05;80.52
75471;HTU21D;64051;46.320;48.028;2022-11-11T13:12:09;6.84;80.79
75471;HTU21D;64051;46.320;48.028;2022-11-11T13:15:02;6.79;80.85
75471;HTU21D;64051;46.320;48.028;2022-11-11T13:17:48;6.73;80.80
75471;HTU21D;64051;46.320;48.028;2022-11-11T13:21:00;6.69;81.03
75471;HTU21D;64051;46.320;48.028;2022-11-11T13:23:49;6.65;80.98
75471;HTU21D;64051;46.320;48.028;2022-11-11T13:26:41;6.61;81.04
75471;HTU21D;64051;46.320;48.028;2022-11-11T13:33:34;6.53;81.15
75471;HTU21D;64051;46.320;48.028;2022-11-11T13:35:59;6.48;81.27
75471;HTU21D;64051;46.320;48.028;2022-11-11T13:38:48;6.45;81.27
75471;HTU21D;64051;46.320;48.028;2022-11-11T13:41:36;6.43;81.25
75471;HTU21D;64051;46.320;48.028;2022-11-11T13:44:38;6.40;81.46
75471;HTU21D;64051;46.320;48.028;2022-11-11T13:47:34;6.36;81.38
75471;HTU21D;64051;46.320;48.028;2022-11-11T13:50:49;6.31;81.40
75471;HTU21D;64051;46.320;48.028;2022-11-11T13:53:40;6.27;81.42
75471;HTU21D;64051;46.320;48.028;2022-11-11T13:56:29;6.25;81.41
75471;HTU21D;64051;46.320;48.028;2022-11-11T13:59:28;6.20;81.39
75471;HTU21D;64051;46.320;48.028;2022-11-11T14:07:52;6.13;81.65
75471;HTU21D;64051;46.320;48.028;2022-11-11T14:10:50;6.12;81.68
75471;HTU21D;64051;46.320;48.028;2022-11-11T14:13:37;6.09;82.26
75471;HTU21D;64051;46.320;48.028;2022-11-11T14:25:22;5.91;81.78
75471;HTU21D;64051;46.320;48.028;2022-11-11T14:40:32;5.66;82.04
75471;HTU21D;64051;46.320;48.028;2022-11-11T14:43:38;5.60;81.94
75471;HTU21D;64051;46.320;48.028;2022-11-11T14:46:23;5.55;81.99
75471;HTU21D;64051;46.320;48.028;2022-11-11T14:49:07;5.50;81.97
75471;HTU21D;64051;46.320;48.028;2022-11-11T14:51:58;5.48;81.94
75471;HTU21D;64051;46.320;48.028;2022-11-11T14:55:35;5.42;82.14
75471;HTU21D;64051;46.320;48.028;2022-11-11T15:03:51;5.27;82.06
75471;HTU21D;64051;46.320;48.028;2022-11-11T15:06:53;5.22;82.03
75471;HTU21D;64051;46.320;48.028;2022-11-11T15:12:58;5.11;82.10
75471;HTU21D;64051;46.320;48.028;2022-11-11T15:19:13;4.94;82.01
75471;HTU21D;64051;46.320;48.028;2022-11-11T15:25:20;4.81;82.13
75471;HTU21D;64051;46.320;48.028;2022-11-11T15:28:37;4.75;82.06
75471;HTU21D;64051;46.320;48.028;2022-11-11T15:37:53;4.50;82.16
75471;HTU21D;64051;46.320;48.028;2022-11-11T15:40:47;4.45;82.26
75471;HTU21D;64051;46.320;48.028;2022-11-11T15:43:38;4.39;82.29
75471;HTU21D;64051;46.320;48.028;2022-11-11T15:46:26;4.34;82.34
75471;HTU21D;64051;46.320;48.028;2022-11-11T15:49:13;4.30;82.50
75471;HTU21D;64051;46.320;48.028;2022-11-11T15:52:00;4.22;82.48
75471;HTU21D;64051;46.320;48.028;2022-11-11T15:54:45;4.21;82.63
75471;HTU21D;64051;46.320;48.028;2022-11-11T15:57:31;4.15;82.49
75471;HTU21D;64051;46.320;48.028;2022-11-11T16:03:24;4.07;82.71
75471;HTU21D;64051;46.320;48.028;2022-11-11T16:06:13;4.03;82.56
75471;HTU21D;64051;46.320;48.028;2022-11-11T16:08:58;3.97;82.84
75471;HTU21D;64051;46.320;48.028;2022-11-11T16:11:46;3.92;82.86
75471;HTU21D;64051;46.320;48.028;2022-11-11T16:14:37;3.87;82.69
75471;HTU21D;64051;46.320;48.028;2022-11-11T16:17:27;3.82;82.59
75471;HTU21D;64051;46.320;48.028;2022-11-11T16:20:21;3.77;82.55
75471;HTU21D;64051;46.320;48.028;2022-11-11T16:23:12;3.71;82.55
75471;HTU21D;64051;46.320;48.028;2022-11-11T16:25:59;3.64;82.55
75471;HTU21D;64051;46.320;48.028;2022-11-11T16:28:52;3.60;82.59
75471;HTU21D;64051;46.320;48.028;2022-11-11T16:31:44;3.53;82.60
75471;HTU21D;64051;46.320;48.028;2022-11-11T16:34:41;3.47;82.62
75471;HTU21D;64051;46.320;48.028;2022-11-11T16:37:41;3.41;82.65
75471;HTU21D;64051;46.320;48.028;2022-11-11T16:40:41;3.34;82.68
75471;HTU21D;64051;46.320;48.028;2022-11-11T16:43:33;3.28;82.64
75471;HTU21D;64051;46.320;48.028;2022-11-11T16:49:28;3.16;82.67
75471;HTU21D;64051;46.320;48.028;2022-11-11T16:52:26;3.11;82.64
75471;HTU21D;64051;46.320;48.028;2022-11-11T16:55:27;3.05;82.78
75471;HTU21D;64051;46.320;48.028;2022-11-11T16:58:20;3.03;83.02
75471;HTU21D;64051;46.320;48.028;2022-11-11T17:01:06;3.03;83.24
75471;HTU21D;64051;46.320;48.028;2022-11-11T17:03:58;3.05;83.39
75471;HTU21D;64051;46.320;48.028;2022-11-11T17:06:49;3.10;83.42
75471;HTU21D;64051;46.320;48.028;2022-11-11T17:09:40;3.10;83.34
75471;HTU21D;64051;46.320;48.028;2022-11-11T17:12:35;3.09;83.53
75471;HTU21D;64051;46.320;48.028;2022-11-11T17:15:22;3.10;83.61
75471;HTU21D;64051;46.320;48.028;2022-11-11T17:18:07;3.08;83.78
75471;HTU21D;64051;46.320;48.028;2022-11-11T17:20:58;3.04;83.41
75471;HTU21D;64051;46.320;48.028;2022-11-11T17:23:52;3.00;83.52
75471;HTU21D;64051;46.320;48.028;2022-11-11T17:26:36;2.95;83.37
75471;HTU21D;64051;46.320;48.028;2022-11-11T17:29:21;2.93;83.49
75471;HTU21D;64051;46.320;48.028;2022-11-11T17:32:08;2.87;83.38
75471;HTU21D;64051;46.320;48.028;2022-11-11T17:34:53;2.81;83.66
75471;HTU21D;64051;46.320;48.028;2022-11-11T17:37:40;2.76;83.55
75471;HTU21D;64051;46.320;48.028;2022-11-11T17:40:33;2.69;83.39
75471;HTU21D;64051;46.320;48.028;2022-11-11T17:43:17;2.65;83.55
75471;HTU21D;64051;46.320;48.028;2022-11-11T17:46:03;2.61;83.69
75471;HTU21D;64051;46.320;48.028;2022-11-11T17:48:51;2.58;83.52
75471;HTU21D;64051;46.320;48.028;2022-11-11T17:51:39;2.55;83.68
75471;HTU21D;64051;46.320;48.028;2022-11-11T17:54:24;2.52;83.59
75471;HTU21D;64051;46.320;48.028;2022-11-11T17:57:13;2.50;83.56
75471;HTU21D;64051;46.320;48.028;2022-11-11T17:59:57;2.50;83.95
75471;HTU21D;64051;46.320;48.028;2022-11-11T18:02:42;2.49;83.94
75471;HTU21D;64051;46.320;48.028;2022-11-11T18:05:26;2.53;83.91
75471;HTU21D;64051;46.320;48.028;2022-11-11T18:08:17;2.52;83.96
75471;HTU21D;64051;46.320;48.028;2022-11-11T18:11:06;2.54;83.90
75471;HTU21D;64051;46.320;48.028;2022-11-11T18:13:54;2.56;83.86
75471;HTU21D;64051;46.320;48.028;2022-11-11T18:16:42;2.59;83.99
75471;HTU21D;64051;46.320;48.028;2022-11-11T18:19:30;2.62;84.03
75471;HTU21D;64051;46.320;48.028;2022-11-11T18:22:15;2.66;83.87
75471;HTU21D;64051;46.320;48.028;2022-11-11T18:25:07;2.70;83.84
75471;HTU21D;64051;46.320;48.028;2022-11-11T18:27:52;2.71;83.87
75471;HTU21D;64051;46.320;48.028;2022-11-11T18:30:43;2.76;84.05
75471;HTU21D;64051;46.320;48.028;2022-11-11T18:33:32;2.82;84.06
75471;HTU21D;64051;46.320;48.028;2022-11-11T18:36:18;2.86;84.02
75471;HTU21D;64051;46.320;48.028;2022-11-11T18:39:03;2.90;84.19
75471;HTU21D;64051;46.320;48.028;2022-11-11T18:41:48;2.95;84.07
75471;HTU21D;64051;46.320;48.028;2022-11-11T18:44:38;3.00;84.13
75471;HTU21D;64051;46.320;48.028;2022-11-11T18:47:25;3.04;84.33
75471;HTU21D;64051;46.320;48.028;2022-11-11T18:50:10;3.08;84.18
75471;HTU21D;64051;46.320;48.028;2022-11-11T18:52:58;3.12;84.00
75471;HTU21D;64051;46.320;48.028;2022-11-11T18:55:45;3.16;84.00
75471;HTU21D;64051;46.320;48.028;2022-11-11T18:58:40;3.17;84.02
75471;HTU21D;64051;46.320;48.028;2022-11-11T19:01:29;3.18;83.93
75471;HTU21D;64051;46.320;48.028;2022-11-11T19:04:13;3.20;84.01
75471;HTU21D;64051;46.320;48.028;2022-11-11T19:06:58;3.23;83.87
75471;HTU21D;64051;46.320;48.028;2022-11-11T19:09:59;3.23;84.10
75471;HTU21D;64051;46.320;48.028;2022-11-11T19:12:43;3.24;83.97
75471;HTU21D;64051;46.320;48.028;2022-11-11T19:15:35;3.26;83.90
75471;HTU21D;64051;46.320;48.028;2022-11-11T19:18:20;3.29;83.94
75471;HTU21D;64051;46.320;48.028;2022-11-11T19:23:54;3.29;84.03
75471;HTU21D;64051;46.320;48.028;2022-11-11T19:26:38;3.30;84.14
75471;HTU21D;64051;46.320;48.028;2022-11-11T19:29:23;3.31;84.01
75471;HTU21D;64051;46.320;48.028;2022-11-11T19:32:07;3.29;84.05
75471;HTU21D;64051;46.320;48.028;2022-11-11T19:35:00;3.30;84.02
75471;HTU21D;64051;46.320;48.028;2022-11-11T19:37:46;3.29;84.29
75471;HTU21D;64051;46.320;48.028;2022-11-11T19:40:31;3.28;84.03
75471;HTU21D;64051;46.320;48.028;2022-11-11T19:43:19;3.27;84.29
75471;HTU21D;64051;46.320;48.028;2022-11-11T19:46:06;3.26;84.09
75471;HTU21D;64051;46.320;48.028;2022-11-11T19:48:55;3.23;84.11
75471;HTU21D;64051;46.320;48.028;2022-11-11T19:51:40;3.19;84.14
75471;HTU21D;64051;46.320;48.028;2022-11-11T19:54:25;3.17;84.07
75471;HTU21D;64051;46.320;48.028;2022-11-11T19:57:09;3.19;84.16
75471;HTU21D;64051;46.320;48.028;2022-11-11T19:59:54;3.17;84.16
75471;HTU21D;64051;46.320;48.028;2022-11-11T20:02:38;3.15;84.27
75471;HTU21D;64051;46.320;48.028;2022-11-11T20:05:23;3.13;84.16
75471;HTU21D;64051;46.320;48.028;2022-11-11T20:08:07;3.11;84.32
75471;HTU21D;64051;46.320;48.028;2022-11-11T20:11:03;3.12;84.19
75471;HTU21D;64051;46.320;48.028;2022-11-11T20:13:55;3.10;84.26
75471;HTU21D;64051;46.320;48.028;2022-11-11T20:16:40;3.11;84.38
75471;HTU21D;64051;46.320;48.028;2022-11-11T20:19:24;3.12;84.40
75471;HTU21D;64051;46.320;48.028;2022-11-11T20:22:09;3.14;84.88
75471;HTU21D;64051;46.320;48.028;2022-11-11T20:24:56;3.14;84.79
75471;HTU21D;64051;46.320;48.028;2022-11-11T20:27:41;3.13;84.74
75471;HTU21D;64051;46.320;48.028;2022-11-11T20:30:25;3.12;84.59
75471;HTU21D;64051;46.320;48.028;2022-11-11T20:33:10;3.10;84.23
75471;HTU21D;64051;46.320;48.028;2022-11-11T20:35:59;3.08;84.51